sensor_id;sensor_type;location;lat;lon;timestamp;pressure;altitude;pressure_sealevel;temperature;humidity
60337;BME280;46978;50.288;28.624;2023-09-30T00:00:15;99578.98;;;9.27;100.00
60337;BME280;46978;50.288;28.624;2023-09-30T00:01:17;99583.33;;;9.25;100.00
60337;BME280;46978;50.288;28.624;2023-09-30T00:02:19;99580.77;;;9.22;100.00
60337;BME280;46978;50.288;28.624;2023-09-30T00:03:21;99580.78;;;9.21;100.00
60337;BME280;46978;50.288;28.624;2023-09-30T00:04:22;99581.66;;;9.18;100.00
60337;BME280;46978;50.288;28.624;2023-09-30T00:05:24;99584.28;;;9.15;100.00
60337;BME280;46978;50.288;28.624;2023-09-30T00:06:26;99582.58;;;9.14;100.00
60337;BME280;46978;50.288;28.624;2023-09-30T00:07:27;99583.43;;;9.14;100.00
60337;BME280;46978;50.288;28.624;2023-09-30T00:08:29;99583.43;;;9.14;100.00
60337;BME280;46978;50.288;28.624;2023-09-30T00:09:31;99583.43;;;9.14;100.00
60337;BME280;46978;50.288;28.624;2023-09-30T00:10:33;99579.98;;;9.15;100.00
60337;BME280;46978;50.288;28.624;2023-09-30T00:11:35;99576.50;;;9.17;100.00
60337;BME280;46978;50.288;28.624;2023-09-30T00:12:36;99573.05;;;9.18;100.00
60337;BME280;46978;50.288;28.624;2023-09-30T00:13:38;99575.63;;;9.18;100.00
60337;BME280;46978;50.288;28.624;2023-09-30T00:14:40;99578.22;;;9.18;100.00
60337;BME280;46978;50.288;28.624;2023-09-30T00:15:41;99572.20;;;9.17;100.00
60337;BME280;46978;50.288;28.624;2023-09-30T00:16:43;99570.48;;;9.14;100.00
60337;BME280;46978;50.288;28.624;2023-09-30T00:17:45;99566.16;;;9.15;100.00
60337;BME280;46978;50.288;28.624;2023-09-30T00:18:47;99567.03;;;9.15;100.00
60337;BME280;46978;50.288;28.624;2023-09-30T00:19:49;99573.92;;;9.15;100.00
60337;BME280;46978;50.288;28.624;2023-09-30T00:20:50;99562.73;;;9.13;100.00
60337;BME280;46978;50.288;28.624;2023-09-30T00:21:52;99563.58;;;9.13;100.00
60337;BME280;46978;50.288;28.624;2023-09-30T00:22:54;99562.73;;;9.13;100.00
60337;BME280;46978;50.288;28.624;2023-09-30T00:23:56;99565.30;;;9.14;100.00
60337;BME280;46978;50.288;28.624;2023-09-30T00:24:57;99569.61;;;9.17;100.00
60337;BME280;46978;50.288;28.624;2023-09-30T00:25:59;99561.86;;;9.15;100.00
60337;BME280;46978;50.288;28.624;2023-09-30T00:27:01;99567.02;;;9.17;100.00
60337;BME280;46978;50.288;28.624;2023-09-30T00:28:03;99565.27;;;9.19;100.00
60337;BME280;46978;50.288;28.624;2023-09-30T00:29:05;99565.27;;;9.19;100.00
60337;BME280;46978;50.288;28.624;2023-09-30T00:30:08;99566.08;;;9.23;100.00
60337;BME280;46978;50.288;28.624;2023-09-30T00:31:10;99561.75;;;9.23;100.00
60337;BME280;46978;50.288;28.624;2023-09-30T00:32:12;99567.83;;;9.22;100.00
60337;BME280;46978;50.288;28.624;2023-09-30T00:33:13;99561.80;;;9.22;100.00
60337;BME280;46978;50.288;28.624;2023-09-30T00:34:15;99560.05;;;9.22;100.00
60337;BME280;46978;50.288;28.624;2023-09-30T00:35:17;99576.44;;;9.23;100.00
60337;BME280;46978;50.288;28.624;2023-09-30T00:36:19;99571.27;;;9.23;100.00
60337;BME280;46978;50.288;28.624;2023-09-30T00:37:20;99570.41;;;9.22;100.00
60337;BME280;46978;50.288;28.624;2023-09-30T00:38:22;99579.92;;;9.22;100.00
60337;BME280;46978;50.288;28.624;2023-09-30T00:39:23;99564.39;;;9.22;100.00
60337;BME280;46978;50.288;28.624;2023-09-30T00:40:25;99573.86;;;9.21;100.00
60337;BME280;46978;50.288;28.624;2023-09-30T00:41:27;99565.28;;;9.18;100.00
60337;BME280;46978;50.288;28.624;2023-09-30T00:42:28;99573.08;;;9.14;100.00
60337;BME280;46978;50.288;28.624;2023-09-30T00:43:30;99572.23;;;9.14;100.00
60337;BME280;46978;50.288;28.624;2023-09-30T00:44:32;99567.91;;;9.13;100.00
60337;BME280;46978;50.288;28.624;2023-09-30T00:45:34;99573.10;;;9.11;100.00
60337;BME280;46978;50.288;28.624;2023-09-30T00:46:39;99570.52;;;9.11;100.00
60337;BME280;46978;50.288;28.624;2023-09-30T00:47:41;99570.54;;;9.08;100.00
60337;BME280;46978;50.288;28.624;2023-09-30T00:48:43;99568.81;;;9.07;100.00
60337;BME280;46978;50.288;28.624;2023-09-30T00:49:45;99566.22;;;9.07;100.00
60337;BME280;46978;50.288;28.624;2023-09-30T00:50:48;99568.83;;;9.06;100.00
60337;BME280;46978;50.288;28.624;2023-09-30T00:51:49;99565.41;;;9.04;100.00
60337;BME280;46978;50.288;28.624;2023-09-30T00:52:51;99572.32;;;9.03;100.00
60337;BME280;46978;50.288;28.624;2023-09-30T00:53:55;99568.00;;;9.02;100.00
60337;BME280;46978;50.288;28.624;2023-09-30T00:54:58;99573.19;;;9.01;100.00
60337;BME280;46978;50.288;28.624;2023-09-30T00:56:00;99568.03;;;8.99;100.00
60337;BME280;46978;50.288;28.624;2023-09-30T00:57:02;99568.02;;;9.01;100.00
60337;BME280;46978;50.288;28.624;2023-09-30T00:58:04;99573.20;;;8.99;100.00
60337;BME280;46978;50.288;28.624;2023-09-30T00:59:06;99571.48;;;8.98;100.00
60337;BME280;46978;50.288;28.624;2023-09-30T01:00:09;99563.71;;;8.98;100.00
60337;BME280;46978;50.288;28.624;2023-09-30T01:01:12;99565.45;;;8.97;100.00
60337;BME280;46978;50.288;28.624;2023-09-30T01:02:14;99568.05;;;8.97;100.00
60337;BME280;46978;50.288;28.624;2023-09-30T01:03:16;99565.47;;;8.96;100.00
60337;BME280;46978;50.288;28.624;2023-09-30T01:04:18;99568.91;;;8.95;100.00
60337;BME280;46978;50.288;28.624;2023-09-30T01:05:19;99562.05;;;8.92;100.00
60337;BME280;46978;50.288;28.624;2023-09-30T01:06:22;99571.52;;;8.92;100.00
60337;BME280;46978;50.288;28.624;2023-09-30T01:07:23;99559.48;;;8.91;100.00
60337;BME280;46978;50.288;28.624;2023-09-30T01:08:26;99561.19;;;8.90;100.00
60337;BME280;46978;50.288;28.624;2023-09-30T01:09:28;99553.44;;;8.89;100.00
60337;BME280;46978;50.288;28.624;2023-09-30T01:10:29;99559.49;;;8.89;100.00
60337;BME280;46978;50.288;28.624;2023-09-30T01:11:31;99556.91;;;8.88;100.00
60337;BME280;46978;50.288;28.624;2023-09-30T01:12:33;99564.68;;;8.88;100.00
60337;BME280;46978;50.288;28.624;2023-09-30T01:13:36;99556.02;;;8.89;100.00
60337;BME280;46978;50.288;28.624;2023-09-30T01:14:38;99553.45;;;8.87;100.00
60337;BME280;46978;50.288;28.624;2023-09-30T01:15:39;99566.36;;;8.90;100.00
60337;BME280;46978;50.288;28.624;2023-09-30T01:16:41;99562.09;;;8.88;100.00
60337;BME280;46978;50.288;28.624;2023-09-30T01:17:43;99560.36;;;8.87;100.00
60337;BME280;46978;50.288;28.624;2023-09-30T01:18:45;99559.52;;;8.86;100.00
60337;BME280;46978;50.288;28.624;2023-09-30T01:19:46;99561.22;;;8.86;100.00
60337;BME280;46978;50.288;28.624;2023-09-30T01:20:48;99550.03;;;8.84;100.00
60337;BME280;46978;50.288;28.624;2023-09-30T01:21:58;99555.22;;;8.84;100.00
60337;BME280;46978;50.288;28.624;2023-09-30T01:23:02;99556.97;;;8.82;100.00
60337;BME280;46978;50.288;28.624;2023-09-30T01:24:04;99552.66;;;8.79;100.00
60337;BME280;46978;50.288;28.624;2023-09-30T01:25:06;99557.84;;;8.79;100.00
60337;BME280;46978;50.288;28.624;2023-09-30T01:26:10;99558.69;;;8.79;100.00
60337;BME280;46978;50.288;28.624;2023-09-30T01:27:12;99558.69;;;8.79;100.00
60337;BME280;46978;50.288;28.624;2023-09-30T01:28:13;99556.11;;;8.78;100.00
60337;BME280;46978;50.288;28.624;2023-09-30T01:29:15;99563.02;;;8.79;100.00
60337;BME280;46978;50.288;28.624;2023-09-30T01:30:17;99558.69;;;8.79;100.00
60337;BME280;46978;50.288;28.624;2023-09-30T01:31:18;99563.00;;;8.81;100.00
60337;BME280;46978;50.288;28.624;2023-09-30T01:32:20;99557.84;;;8.79;100.00
60337;BME280;46978;50.288;28.624;2023-09-30T01:33:22;99555.25;;;8.79;100.00
60337;BME280;46978;50.288;28.624;2023-09-30T01:34:24;99551.81;;;8.78;100.00
60337;BME280;46978;50.288;28.624;2023-09-30T01:35:25;99553.52;;;8.78;100.00
60337;BME280;46978;50.288;28.624;2023-09-30T01:36:27;99549.25;;;8.75;100.00
60337;BME280;46978;50.288;28.624;2023-09-30T01:37:29;99550.97;;;8.73;100.00
60337;BME280;46978;50.288;28.624;2023-09-30T01:38:30;99555.30;;;8.71;100.00
60337;BME280;46978;50.288;28.624;2023-09-30T01:39:32;99552.73;;;8.70;100.00
60337;BME280;46978;50.288;28.624;2023-09-30T01:40:34;99558.77;;;8.69;100.00
60337;BME280;46978;50.288;28.624;2023-09-30T01:41:39;99555.34;;;8.67;100.00
60337;BME280;46978;50.288;28.624;2023-09-30T01:42:40;99546.74;;;8.65;100.00
60337;BME280;46978;50.288;28.624;2023-09-30T01:43:42;99557.10;;;8.63;100.00
60337;BME280;46978;50.288;28.624;2023-09-30T01:44:44;99552.78;;;8.62;100.00
60337;BME280;46978;50.288;28.624;2023-09-30T01:45:46;99557.95;;;8.62;100.00
60337;BME280;46978;50.288;28.624;2023-09-30T01:46:47;99557.10;;;8.63;100.00
60337;BME280;46978;50.288;28.624;2023-09-30T01:47:49;99551.06;;;8.61;100.00
60337;BME280;46978;50.288;28.624;2023-09-30T01:48:50;99548.46;;;8.63;100.00
60337;BME280;46978;50.288;28.624;2023-09-30T01:49:52;99550.19;;;8.64;100.00
60337;BME280;46978;50.288;28.624;2023-09-30T01:50:54;99557.08;;;8.66;100.00
60337;BME280;46978;50.288;28.624;2023-09-30T01:51:55;99554.49;;;8.66;100.00
60337;BME280;46978;50.288;28.624;2023-09-30T01:52:57;99557.08;;;8.66;100.00
60337;BME280;46978;50.288;28.624;2023-09-30T01:53:59;99551.91;;;8.66;100.00
60337;BME280;46978;50.288;28.624;2023-09-30T01:55:00;99549.32;;;8.66;100.00
60337;BME280;46978;50.288;28.624;2023-09-30T01:56:02;99549.33;;;8.65;100.00
60337;BME280;46978;50.288;28.624;2023-09-30T01:57:04;99550.20;;;8.62;100.00
60337;BME280;46978;50.288;28.624;2023-09-30T01:58:06;99550.21;;;8.60;100.00
60337;BME280;46978;50.288;28.624;2023-09-30T01:59:07;99547.63;;;8.59;100.00
60337;BME280;46978;50.288;28.624;2023-09-30T02:00:10;99547.63;;;8.59;100.00
60337;BME280;46978;50.288;28.624;2023-09-30T02:01:12;99551.97;;;8.57;100.00
60337;BME280;46978;50.288;28.624;2023-09-30T02:02:14;99548.52;;;8.55;100.00
60337;BME280;46978;50.288;28.624;2023-09-30T02:03:15;99550.27;;;8.53;100.00
60337;BME280;46978;50.288;28.624;2023-09-30T02:04:17;99546.85;;;8.49;100.00
60337;BME280;46978;50.288;28.624;2023-09-30T02:05:18;99541.69;;;8.48;100.00
60337;BME280;46978;50.288;28.624;2023-09-30T02:06:20;99545.98;;;8.46;100.00
60337;BME280;46978;50.288;28.624;2023-09-30T02:07:22;99545.16;;;8.43;100.00
60337;BME280;46978;50.288;28.624;2023-09-30T02:08:24;99545.98;;;8.42;100.00
60337;BME280;46978;50.288;28.624;2023-09-30T02:09:26;99547.72;;;8.42;100.00
60337;BME280;46978;50.288;28.624;2023-09-30T02:10:27;99541.70;;;8.40;100.00
60337;BME280;46978;50.288;28.624;2023-09-30T02:11:29;99546.01;;;8.38;100.00
60337;BME280;46978;50.288;28.624;2023-09-30T02:12:31;99545.17;;;8.36;100.00
60337;BME280;46978;50.288;28.624;2023-09-30T02:13:34;99540.01;;;8.34;100.00
60337;BME280;46978;50.288;28.624;2023-09-30T02:14:37;99537.43;;;8.33;100.00
60337;BME280;46978;50.288;28.624;2023-09-30T02:15:40;99536.58;;;8.32;100.00
60337;BME280;46978;50.288;28.624;2023-09-30T02:16:41;99542.61;;;8.31;100.00
60337;BME280;46978;50.288;28.624;2023-09-30T02:17:43;99537.45;;;8.30;100.00
60337;BME280;46978;50.288;28.624;2023-09-30T02:18:45;99536.60;;;8.29;100.00
60337;BME280;46978;50.288;28.624;2023-09-30T02:19:46;99537.47;;;8.26;100.00
60337;BME280;46978;50.288;28.624;2023-09-30T02:20:48;99540.89;;;8.29;100.00
60337;BME280;46978;50.288;28.624;2023-09-30T02:21:49;99531.42;;;8.31;100.00
60337;BME280;46978;50.288;28.624;2023-09-30T02:22:52;99534.86;;;8.31;100.00
60337;BME280;46978;50.288;28.624;2023-09-30T02:23:53;99530.53;;;8.32;100.00
60337;BME280;46978;50.288;28.624;2023-09-30T02:24:55;99534.02;;;8.29;100.00
60337;BME280;46978;50.288;28.624;2023-09-30T02:25:57;99528.84;;;8.29;100.00
60337;BME280;46978;50.288;28.624;2023-09-30T02:26:58;99543.48;;;8.29;100.00
60337;BME280;46978;50.288;28.624;2023-09-30T02:28:00;99537.47;;;8.26;100.00
60337;BME280;46978;50.288;28.624;2023-09-30T02:29:01;99528.86;;;8.28;100.00
60337;BME280;46978;50.288;28.624;2023-09-30T02:30:04;99537.47;;;8.26;100.00
60337;BME280;46978;50.288;28.624;2023-09-30T02:31:06;99534.89;;;8.25;100.00
60337;BME280;46978;50.288;28.624;2023-09-30T02:32:07;99540.07;;;8.23;100.00
60337;BME280;46978;50.288;28.624;2023-09-30T02:33:09;99534.06;;;8.21;100.00
60337;BME280;46978;50.288;28.624;2023-09-30T02:34:11;99529.75;;;8.20;100.00
60337;BME280;46978;50.288;28.624;2023-09-30T02:35:12;99532.34;;;8.19;100.00
60337;BME280;46978;50.288;28.624;2023-09-30T02:36:14;99538.38;;;8.18;100.00
60337;BME280;46978;50.288;28.624;2023-09-30T02:37:16;99529.77;;;8.16;100.00
60337;BME280;46978;50.288;28.624;2023-09-30T02:38:17;99533.20;;;8.16;100.00
60337;BME280;46978;50.288;28.624;2023-09-30T02:39:19;99527.20;;;8.13;100.00
60337;BME280;46978;50.288;28.624;2023-09-30T02:40:21;99528.95;;;8.12;100.00
60337;BME280;46978;50.288;28.624;2023-09-30T02:41:22;99530.66;;;8.10;100.00
60337;BME280;46978;50.288;28.624;2023-09-30T02:42:24;99522.06;;;8.08;100.00
60337;BME280;46978;50.288;28.624;2023-09-30T02:43:25;99520.34;;;8.07;100.00
60337;BME280;46978;50.288;28.624;2023-09-30T02:44:27;99524.66;;;8.06;100.00
60337;BME280;46978;50.288;28.624;2023-09-30T02:45:29;99523.81;;;8.06;100.00
60337;BME280;46978;50.288;28.624;2023-09-30T02:46:31;99519.48;;;8.06;100.00
60337;BME280;46978;50.288;28.624;2023-09-30T02:47:33;99524.66;;;8.05;100.00
60337;BME280;46978;50.288;28.624;2023-09-30T02:48:35;99522.95;;;8.02;100.00
60337;BME280;46978;50.288;28.624;2023-09-30T02:49:37;99517.78;;;8.02;100.00
60337;BME280;46978;50.288;28.624;2023-09-30T02:50:43;99516.07;;;8.03;100.00
60337;BME280;46978;50.288;28.624;2023-09-30T02:51:45;99519.51;;;8.02;100.00
60337;BME280;46978;50.288;28.624;2023-09-30T02:52:47;99512.64;;;7.96;100.00
60337;BME280;46978;50.288;28.624;2023-09-30T02:53:48;99512.64;;;7.96;100.00
60337;BME280;46978;50.288;28.624;2023-09-30T02:54:50;99520.37;;;7.98;100.00
60337;BME280;46978;50.288;28.624;2023-09-30T02:55:52;99512.64;;;7.96;100.00
60337;BME280;46978;50.288;28.624;2023-09-30T02:56:53;99509.20;;;7.96;100.00
60337;BME280;46978;50.288;28.624;2023-09-30T02:57:55;99509.22;;;7.94;100.00
60337;BME280;46978;50.288;28.624;2023-09-30T02:58:57;99510.95;;;7.94;100.00
60337;BME280;46978;50.288;28.624;2023-09-30T02:59:58;99511.80;;;7.93;100.00
60337;BME280;46978;50.288;28.624;2023-09-30T03:01:00;99508.38;;;7.90;100.00
60337;BME280;46978;50.288;28.624;2023-09-30T03:02:02;99516.14;;;7.89;100.00
60337;BME280;46978;50.288;28.624;2023-09-30T03:03:04;99519.59;;;7.86;100.00
60337;BME280;46978;50.288;28.624;2023-09-30T03:04:06;99514.42;;;7.86;100.00
60337;BME280;46978;50.288;28.624;2023-09-30T03:05:08;99512.72;;;7.87;100.00
60337;BME280;46978;50.288;28.624;2023-09-30T03:06:10;99512.72;;;7.87;100.00
60337;BME280;46978;50.288;28.624;2023-09-30T03:07:13;99513.56;;;7.87;100.00
60337;BME280;46978;50.288;28.624;2023-09-30T03:08:15;99512.72;;;7.87;100.00
60337;BME280;46978;50.288;28.624;2023-09-30T03:09:17;99515.31;;;7.84;100.00
60337;BME280;46978;50.288;28.624;2023-09-30T03:10:19;99514.44;;;7.82;100.00
60337;BME280;46978;50.288;28.624;2023-09-30T03:11:21;99517.91;;;7.81;100.00
60337;BME280;46978;50.288;28.624;2023-09-30T03:12:22;99512.75;;;7.79;100.00
60337;BME280;46978;50.288;28.624;2023-09-30T03:13:24;99511.88;;;7.77;100.00
60337;BME280;46978;50.288;28.624;2023-09-30T03:14:26;99506.72;;;7.76;100.00
60337;BME280;46978;50.288;28.624;2023-09-30T03:15:28;99506.72;;;7.76;100.00
60337;BME280;46978;50.288;28.624;2023-09-30T03:16:30;99512.76;;;7.78;100.00
60337;BME280;46978;50.288;28.624;2023-09-30T03:17:32;99505.87;;;7.75;100.00
60337;BME280;46978;50.288;28.624;2023-09-30T03:18:33;99509.30;;;7.74;100.00
60337;BME280;46978;50.288;28.624;2023-09-30T03:19:35;99506.73;;;7.72;100.00
60337;BME280;46978;50.288;28.624;2023-09-30T03:20:37;99511.91;;;7.71;100.00
60337;BME280;46978;50.288;28.624;2023-09-30T03:21:38;99509.33;;;7.69;100.00
60337;BME280;46978;50.288;28.624;2023-09-30T03:22:44;99505.04;;;7.70;100.00
60337;BME280;46978;50.288;28.624;2023-09-30T03:23:45;99503.31;;;7.69;100.00
60337;BME280;46978;50.288;28.624;2023-09-30T03:24:47;99498.17;;;7.64;100.00
60337;BME280;46978;50.288;28.624;2023-09-30T03:25:48;99498.17;;;7.64;100.00
60337;BME280;46978;50.288;28.624;2023-09-30T03:26:50;99502.48;;;7.65;100.00
60337;BME280;46978;50.288;28.624;2023-09-30T03:27:52;99503.34;;;7.63;100.00
60337;BME280;46978;50.288;28.624;2023-09-30T03:28:53;99504.19;;;7.63;100.00
60337;BME280;46978;50.288;28.624;2023-09-30T03:29:55;99506.77;;;7.65;100.00
60337;BME280;46978;50.288;28.624;2023-09-30T03:30:57;99506.75;;;7.66;100.00
60337;BME280;46978;50.288;28.624;2023-09-30T03:31:58;99496.42;;;7.66;100.00
60337;BME280;46978;50.288;28.624;2023-09-30T03:33:00;99505.05;;;7.68;100.00
60337;BME280;46978;50.288;28.624;2023-09-30T03:34:04;99501.58;;;7.68;100.00
60337;BME280;46978;50.288;28.624;2023-09-30T03:35:07;99499.88;;;7.68;100.00
60337;BME280;46978;50.288;28.624;2023-09-30T03:36:09;99501.59;;;7.66;100.00
60337;BME280;46978;50.288;28.624;2023-09-30T03:37:11;99501.59;;;7.66;100.00
60337;BME280;46978;50.288;28.624;2023-09-30T03:38:12;99501.59;;;7.66;100.00
60337;BME280;46978;50.288;28.624;2023-09-30T03:39:14;99497.31;;;7.65;100.00
60337;BME280;46978;50.288;28.624;2023-09-30T03:40:16;99505.91;;;7.64;100.00
60337;BME280;46978;50.288;28.624;2023-09-30T03:41:17;99502.48;;;7.64;100.00
60337;BME280;46978;50.288;28.624;2023-09-30T03:42:19;99493.85;;;7.63;100.00
60337;BME280;46978;50.288;28.624;2023-09-30T03:43:21;99500.76;;;7.61;100.00
60337;BME280;46978;50.288;28.624;2023-09-30T03:44:23;99498.18;;;7.61;100.00
60337;BME280;46978;50.288;28.624;2023-09-30T03:45:24;99501.61;;;7.62;100.00
60337;BME280;46978;50.288;28.624;2023-09-30T03:46:26;99493.86;;;7.60;100.00
60337;BME280;46978;50.288;28.624;2023-09-30T03:47:28;99498.18;;;7.61;100.00
60337;BME280;46978;50.288;28.624;2023-09-30T03:48:31;99494.75;;;7.61;100.00
60337;BME280;46978;50.288;28.624;2023-09-30T03:49:32;99495.59;;;7.61;100.00
60337;BME280;46978;50.288;28.624;2023-09-30T03:50:34;99487.86;;;7.60;100.00
60337;BME280;46978;50.288;28.624;2023-09-30T03:52:35;99490.41;;;7.67;100.00
60337;BME280;46978;50.288;28.624;2023-09-30T03:53:36;99499.94;;;7.54;100.00
60337;BME280;46978;50.288;28.624;2023-09-30T03:54:38;99495.63;;;7.52;100.00
60337;BME280;46978;50.288;28.624;2023-09-30T03:55:39;99495.63;;;7.52;100.00
60337;BME280;46978;50.288;28.624;2023-09-30T03:56:41;99499.06;;;7.52;100.00
60337;BME280;46978;50.288;28.624;2023-09-30T03:57:43;99492.19;;;7.53;100.00
60337;BME280;46978;50.288;28.624;2023-09-30T03:58:45;99491.31;;;7.52;100.00
60337;BME280;46978;50.288;28.624;2023-09-30T03:59:46;99498.20;;;7.53;100.00
60337;BME280;46978;50.288;28.624;2023-09-30T04:00:48;99493.89;;;7.54;100.00
60337;BME280;46978;50.288;28.624;2023-09-30T04:01:51;99499.06;;;7.52;100.00
60337;BME280;46978;50.288;28.624;2023-09-30T04:02:53;99499.06;;;7.51;100.00
60337;BME280;46978;50.288;28.624;2023-09-30T04:03:55;99496.49;;;7.48;100.00
60337;BME280;46978;50.288;28.624;2023-09-30T04:04:56;99490.48;;;7.46;100.00
60337;BME280;46978;50.288;28.624;2023-09-30T04:05:58;99496.50;;;7.46;100.00
60337;BME280;46978;50.288;28.624;2023-09-30T04:07:00;99494.80;;;7.45;100.00
60337;BME280;46978;50.288;28.624;2023-09-30T04:08:02;99499.09;;;7.45;100.00
60337;BME280;46978;50.288;28.624;2023-09-30T04:09:05;99497.39;;;7.44;100.00
60337;BME280;46978;50.288;28.624;2023-09-30T04:10:08;99493.92;;;7.45;100.00
60337;BME280;46978;50.288;28.624;2023-09-30T04:11:10;99491.34;;;7.43;100.00
60337;BME280;46978;50.288;28.624;2023-09-30T04:12:12;99494.81;;;7.42;100.00
60337;BME280;46978;50.288;28.624;2023-09-30T04:13:13;99493.94;;;7.42;100.00
60337;BME280;46978;50.288;28.624;2023-09-30T04:14:15;99492.23;;;7.42;100.00
60337;BME280;46978;50.288;28.624;2023-09-30T04:15:17;99493.08;;;7.43;100.00
60337;BME280;46978;50.288;28.624;2023-09-30T04:16:18;99498.23;;;7.44;100.00
60337;BME280;46978;50.288;28.624;2023-09-30T04:17:20;99494.81;;;7.44;100.00
60337;BME280;46978;50.288;28.624;2023-09-30T04:18:22;99498.23;;;7.47;100.00
60337;BME280;46978;50.288;28.624;2023-09-30T04:19:23;99498.22;;;7.49;100.00
60337;BME280;46978;50.288;28.624;2023-09-30T04:20:25;99495.63;;;7.50;100.00
60337;BME280;46978;50.288;28.624;2023-09-30T04:21:27;99496.48;;;7.51;100.00
60337;BME280;46978;50.288;28.624;2023-09-30T04:22:29;99492.19;;;7.53;100.00
60337;BME280;46978;50.288;28.624;2023-09-30T04:23:30;99495.62;;;7.55;100.00
60337;BME280;46978;50.288;28.624;2023-09-30T04:24:32;99493.02;;;7.58;100.00
60337;BME280;46978;50.288;28.624;2023-09-30T04:25:33;99500.76;;;7.61;100.00
60337;BME280;46978;50.288;28.624;2023-09-30T04:26:35;99494.73;;;7.62;100.00
60337;BME280;46978;50.288;28.624;2023-09-30T04:27:37;99494.73;;;7.64;100.00
60337;BME280;46978;50.288;28.624;2023-09-30T04:28:38;99498.17;;;7.64;100.00
60337;BME280;46978;50.288;28.624;2023-09-30T04:29:40;99499.00;;;7.66;100.00
60337;BME280;46978;50.288;28.624;2023-09-30T04:30:42;99500.73;;;7.67;100.00
60337;BME280;46978;50.288;28.624;2023-09-30T04:31:43;99498.99;;;7.69;100.00
60337;BME280;46978;50.288;28.624;2023-09-30T04:32:45;99503.30;;;7.72;100.00
60337;BME280;46978;50.288;28.624;2023-09-30T04:33:48;99496.39;;;7.74;100.00
60337;BME280;46978;50.288;28.624;2023-09-30T04:34:50;99503.28;;;7.77;100.00
60337;BME280;46978;50.288;28.624;2023-09-30T04:35:52;99504.13;;;7.79;100.00
60337;BME280;46978;50.288;28.624;2023-09-30T04:36:53;99494.67;;;7.79;100.00
60337;BME280;46978;50.288;28.624;2023-09-30T04:37:55;99496.36;;;7.82;100.00
60337;BME280;46978;50.288;28.624;2023-09-30T04:38:57;99497.22;;;7.87;100.00
60337;BME280;46978;50.288;28.624;2023-09-30T04:39:58;99498.89;;;7.91;100.00
60337;BME280;46978;50.288;28.624;2023-09-30T04:41:00;99497.13;;;7.96;100.00
60337;BME280;46978;50.288;28.624;2023-09-30T04:42:02;99498.84;;;8.00;100.00
60337;BME280;46978;50.288;28.624;2023-09-30T04:43:04;99494.51;;;8.04;100.00
60337;BME280;46978;50.288;28.624;2023-09-30T04:44:06;99493.64;;;8.08;100.00
60337;BME280;46978;50.288;28.624;2023-09-30T04:45:09;99499.63;;;8.13;100.00
60337;BME280;46978;50.288;28.624;2023-09-30T04:46:11;99492.73;;;8.17;100.00
60337;BME280;46978;50.288;28.624;2023-09-30T04:47:12;99495.28;;;8.23;100.00
60337;BME280;46978;50.288;28.624;2023-09-30T04:48:14;99492.66;;;8.29;100.00
60337;BME280;46978;50.288;28.624;2023-09-30T04:49:15;99494.31;;;8.35;100.00
60337;BME280;46978;50.288;28.624;2023-09-30T04:50:18;99488.25;;;8.40;100.00
60337;BME280;46978;50.288;28.624;2023-09-30T04:51:20;99492.55;;;8.48;100.00
60337;BME280;46978;50.288;28.624;2023-09-30T04:52:22;99490.77;;;8.54;100.00
60337;BME280;46978;50.288;28.624;2023-09-30T04:53:24;99482.95;;;8.62;100.00
60337;BME280;46978;50.288;28.624;2023-09-30T04:54:25;99482.89;;;8.68;100.00
60337;BME280;46978;50.288;28.624;2023-09-30T04:55:27;99486.29;;;8.73;100.00
60337;BME280;46978;50.288;28.624;2023-09-30T04:56:29;99490.56;;;8.79;100.00
60337;BME280;46978;50.288;28.624;2023-09-30T04:57:31;99483.61;;;8.84;100.00
60337;BME280;46978;50.288;28.624;2023-09-30T04:58:32;99496.48;;;8.92;100.00
60337;BME280;46978;50.288;28.624;2023-09-30T04:59:34;99480.91;;;8.96;100.00
60337;BME280;46978;50.288;28.624;2023-09-30T05:00:36;99482.59;;;9.02;100.00
60337;BME280;46978;50.288;28.624;2023-09-30T05:01:38;99479.95;;;9.07;100.00
60337;BME280;46978;50.288;28.624;2023-09-30T05:02:40;99487.67;;;9.11;100.00
60337;BME280;46978;50.288;28.624;2023-09-30T05:03:41;99481.59;;;9.17;100.00
60337;BME280;46978;50.288;28.624;2023-09-30T05:04:43;99479.79;;;9.22;100.00
60337;BME280;46978;50.288;28.624;2023-09-30T05:05:44;99480.59;;;9.27;100.00
60337;BME280;46978;50.288;28.624;2023-09-30T05:06:46;99490.03;;;9.33;100.00
60337;BME280;46978;50.288;28.624;2023-09-30T05:07:48;99483.05;;;9.40;100.00
60337;BME280;46978;50.288;28.624;2023-09-30T05:08:49;99489.91;;;9.44;100.00
60337;BME280;46978;50.288;28.624;2023-09-30T05:09:51;99477.73;;;9.50;100.00
60337;BME280;46978;50.288;28.624;2023-09-30T05:10:53;99481.98;;;9.58;100.00
60337;BME280;46978;50.288;28.624;2023-09-30T05:11:55;99481.92;;;9.62;100.00
60337;BME280;46978;50.288;28.624;2023-09-30T05:12:57;99483.56;;;9.68;100.00
60337;BME280;46978;50.288;28.624;2023-09-30T05:13:59;99486.95;;;9.75;100.00
60337;BME280;46978;50.288;28.624;2023-09-30T05:15:00;99485.13;;;9.81;100.00
60337;BME280;46978;50.288;28.624;2023-09-30T05:16:02;99485.91;;;9.86;100.00
60337;BME280;46978;50.288;28.624;2023-09-30T05:17:04;99487.58;;;9.92;100.00
60337;BME280;46978;50.288;28.624;2023-09-30T05:18:06;99487.50;;;9.98;99.95
60337;BME280;46978;50.288;28.624;2023-09-30T05:19:08;99483.09;;;10.03;99.64
60337;BME280;46978;50.288;28.624;2023-09-30T05:20:10;99484.75;;;10.09;99.33
60337;BME280;46978;50.288;28.624;2023-09-30T05:21:12;99490.70;;;10.16;99.23
60337;BME280;46978;50.288;28.624;2023-09-30T05:22:13;99488.89;;;10.22;99.12
60337;BME280;46978;50.288;28.624;2023-09-30T05:23:15;99491.40;;;10.29;99.07
60337;BME280;46978;50.288;28.624;2023-09-30T05:24:17;99484.42;;;10.34;99.01